Latest Weather Observations for Jacup

IDW60801

Issued at 4:32 pm WST Monday 30 May 2016 (issued every 30 minutes, with the page automatically refreshed every 10 minutes)

About weather observations | Map of weather stations | Latest weather observations for WA | Other Formats
Station Details ID: 010905 Name: JACUP Lat: -33.89 Lon: 119.11 Height: 305.0 m
Data from the previous 72 hours. | See also: Recent months at Jacup
Date/Time
WST
Temp
°C
App
Temp
°C
Dew
Point
Rel
Hum
%
Delta-T
°C
Wind Press
QNH
hPa
Press
MSL
hPa
Rain
since 9 am
mm
Dir
 
Spd
km/h
Gust
km/h
Spd
kts
Gust
kts
30/04:30pm 12.2 9.3 6.3 67 2.8 NE 11 15 6 8 1019.7 1019.4 0.0
30/04:00pm 12.7 9.3 6.1 64 3.2 ENE 13 17 7 9 1019.5 1019.2 0.0
30/03:30pm 13.0 9.6 5.9 62 3.4 E 13 20 7 11 1019.2 1018.9 0.0
30/03:00pm 13.9 10.7 6.7 62 3.5 NE 13 20 7 11 1019.2 1018.9 0.0
30/02:30pm 13.6 10.7 6.5 62 3.5 E 11 17 6 9 1019.3 1019.0 0.0
30/02:00pm 13.1 10.6 6.5 64 3.2 ENE 9 13 5 7 1019.5 1019.2 0.0
30/01:30pm 13.1 10.5 6.2 63 3.3 NNE 9 15 5 8 1019.6 1019.3 0.0
30/01:00pm 13.2 10.6 6.1 62 3.4 NNE 9 15 5 8 1019.5 1019.2 0.0
30/12:30pm 12.8 9.8 6.2 64 3.2 ENE 11 17 6 9 1019.8 1019.5 0.0
30/12:00pm 12.9 10.3 6.3 64 3.2 ENE 9 15 5 8 1019.9 1019.6 0.0
30/11:30am 13.7 10.4 6.6 62 3.5 ENE 13 20 7 11 1020.3 1020.1 0.0
30/11:00am 12.6 11.0 6.4 66 3.0 ESE 4 11 2 6 1020.7 1020.5 0.0
30/10:30am 12.7 10.5 6.3 65 3.1 ESE 7 11 4 6 1021.1 1020.8 0.0
30/10:00am 12.3 10.2 5.7 64 3.1 SE 6 9 3 5 1021.2 1020.9 0.0
30/09:30am 11.3 9.2 6.6 73 2.3 SW 7 9 4 5 1021.3 1021.0 0.0
30/09:00am 10.6 10.1 7.7 82 1.4 CALM 0 0 0 0 1021.4 1021.1 0.0
30/08:30am 8.5 8.0 7.7 95 0.4 CALM 0 0 0 0 1021.2 1020.9 0.0
30/08:00am 7.1 5.9 6.5 96 0.3 WSW 2 6 1 3 1021.0 1020.7 0.0
30/07:30am 3.5 2.0 2.8 95 0.3 CALM 0 0 0 0 1020.6 1020.4 0.0
30/07:00am 1.6 -0.2 0.9 95 0.3 CALM 0 0 0 0 1020.6 1020.4 0.0
30/06:30am 1.8 0.0 1.1 95 0.3 CALM 0 0 0 0 1020.5 1020.3 0.0
30/06:00am 2.1 0.3 1.4 95 0.3 CALM 0 0 0 0 1020.3 1020.1 0.0
30/05:30am 2.2 0.4 1.3 94 0.3 CALM 0 0 0 0 1020.1 1019.8 0.0
30/05:00am 3.5 2.0 2.8 95 0.3 CALM 0 0 0 0 1019.9 1019.6 0.0
30/04:30am 2.8 1.1 1.9 94 0.4 CALM 0 0 0 0 1020.0 1019.7 0.0
30/04:00am 2.9 1.2 2.0 94 0.4 CALM 0 0 0 0 1019.8 1019.5 0.0
30/03:30am 3.1 1.5 2.2 94 0.4 CALM 0 0 0 0 1019.8 1019.5 0.0
30/03:00am 3.1 1.4 2.1 93 0.4 CALM 0 0 0 0 1019.9 1019.6 0.0
30/02:30am 3.7 2.1 2.7 93 0.4 CALM 0 0 0 0 1020.1 1019.8 0.0
30/02:00am 4.0 2.5 3.0 93 0.4 CALM 0 0 0 0 1020.2 1019.9 0.0
30/01:30am 4.3 2.8 3.1 92 0.5 CALM 0 0 0 0 1020.2 1019.9 0.0
30/01:00am 5.0 3.6 3.8 92 0.5 CALM 0 0 0 0 1020.3 1020.1 0.0
30/12:30am 5.2 3.9 3.9 91 0.6 CALM 0 0 0 0 1020.4 1020.2 0.0
30/12:00am 6.4 5.3 4.9 90 0.7 CALM 0 0 0 0 1020.6 1020.4 0.0
 
Date/Time
WST
Temp
°C
App
Temp
°C
Dew
Point
Rel
Hum
%
Delta-T
°C
Wind Press
QNH
hPa
Press
MSL
hPa
Rain
since 9 am
mm
Dir
 
Spd
km/h
Gust
km/h
Spd
kts
Gust
kts
29/11:30pm 6.9 5.4 4.9 87 0.9 S 2 6 1 3 1020.5 1020.3 0.0
29/11:00pm 7.9 5.5 5.4 84 1.1 S 7 9 4 5 1020.6 1020.4 0.0
29/10:30pm 8.5 6.4 5.8 83 1.2 S 6 7 3 4 1020.5 1020.3 0.0
29/10:00pm 8.7 7.8 6.2 84 1.2 CALM 0 0 0 0 1020.7 1020.5 0.0
29/09:30pm 8.9 7.3 6.2 83 1.3 SW 4 7 2 4 1020.7 1020.5 0.0
29/09:00pm 8.8 6.8 6.3 84 1.2 SW 6 7 3 4 1020.7 1020.5 0.0
29/08:30pm 8.7 6.6 6.0 83 1.3 SW 6 6 3 3 1020.6 1020.4 0.0
29/08:00pm 9.0 6.7 5.9 81 1.4 SW 7 7 4 4 1020.5 1020.3 0.0
29/07:30pm 9.3 7.1 6.2 81 1.5 WSW 7 9 4 5 1020.4 1020.2 0.0
29/07:00pm 9.5 7.5 6.2 80 1.5 WSW 6 7 3 4 1020.2 1019.9 0.0
29/06:30pm 9.7 7.6 5.9 77 1.8 WSW 6 7 3 4 1019.8 1019.5 0.0
29/06:00pm 9.8 7.7 6.0 77 1.8 SSE 6 9 3 5 1019.5 1019.2 0.0
29/05:30pm 10.2 8.1 6.0 75 2.0 S 6 7 3 4 1019.1 1018.8 0.0
29/05:00pm 11.2 9.1 6.5 73 2.2 S 7 11 4 6 1019.0 1018.7 0.0
29/04:30pm 11.4 8.8 6.1 70 2.5 S 9 15 5 8 1018.8 1018.5 0.0
29/04:00pm 11.9 9.0 4.9 62 3.3 SSW 9 15 5 8 1018.6 1018.3 0.0
29/03:30pm 12.2 9.0 4.9 61 3.4 SSW 11 17 6 9 1018.5 1018.2 0.0
29/03:00pm 12.5 8.4 4.2 57 3.8 SW 15 20 8 11 1018.2 1017.9 0.0
29/02:30pm 12.6 9.0 4.8 59 3.6 SSW 13 20 7 11 1018.2 1017.9 0.0
29/02:00pm 12.8 9.1 4.5 57 3.8 SSW 13 19 7 10 1017.9 1017.6 0.0
29/01:30pm 12.6 8.4 5.8 63 3.2 SSW 17 24 9 13 1018.0 1017.7 0.0
29/01:00pm 13.1 9.6 5.3 59 3.7 SW 13 20 7 11 1018.1 1017.8 0.0
29/12:30pm 13.3 9.1 5.7 60 3.6 SW 17 24 9 13 1018.1 1017.8 0.0
29/12:00pm 14.4 10.3 6.0 57 4.1 SW 17 28 9 15 1018.3 1018.0 0.0
29/11:30am 14.3 9.7 6.4 59 3.9 SW 20 30 11 16 1018.5 1018.2 0.0
29/11:00am 13.0 8.4 6.6 65 3.1 SW 20 30 11 16 1018.8 1018.5 0.0
29/10:30am 12.9 8.8 7.8 71 2.5 SW 19 26 10 14 1019.0 1018.7 0.0
29/10:00am 12.4 9.4 9.2 81 1.6 SW 15 20 8 11 1019.1 1018.8 0.0
29/09:30am 11.0 8.6 10.1 94 0.5 WSW 13 19 7 10 1019.0 1018.7 0.0
29/09:00am 9.4 6.7 8.8 96 0.3 W 13 17 7 9 1018.8 1018.5 0.4
29/08:30am 8.7 6.2 8.1 96 0.3 W 11 15 6 8 1018.5 1018.2 0.4
29/08:00am 8.2 5.9 7.6 96 0.3 WNW 9 13 5 7 1018.1 1017.8 0.4
29/07:30am 7.6 4.8 7.0 96 0.3 W 11 15 6 8 1017.8 1017.5 0.4
29/07:00am 7.5 4.7 6.9 96 0.3 W 11 15 6 8 1017.7 1017.4 0.4
29/06:30am 6.9 4.3 6.3 96 0.3 W 9 13 5 7 1017.1 1016.8 0.2
29/06:00am 7.2 4.3 6.6 96 0.3 W 11 15 6 8 1016.8 1016.5 0.2
29/05:30am 6.9 4.0 6.3 96 0.3 W 11 13 6 7 1016.4 1016.1 0.2
29/05:00am 6.7 3.7 6.1 96 0.3 W 11 15 6 8 1016.1 1015.8 0.2
29/04:30am 6.3 2.9 5.7 96 0.3 W 13 19 7 10 1015.9 1015.6 0.2
29/04:00am 6.0 2.8 5.3 95 0.3 WNW 11 15 6 8 1015.7 1015.4 0.2
29/03:30am 5.6 2.7 4.9 95 0.3 WNW 9 13 5 7 1015.4 1015.1 0.2
29/03:00am 5.9 2.7 5.2 95 0.3 WNW 11 15 6 8 1015.4 1015.1 0.2
29/02:30am 5.9 2.3 5.2 95 0.3 WNW 13 15 7 8 1015.3 1015.0 0.2
29/02:00am 5.9 2.7 5.2 95 0.3 WNW 11 13 6 7 1015.0 1014.7 0.2
29/01:30am 6.2 3.5 5.5 95 0.3 WNW 9 13 5 7 1015.0 1014.7 0.2
29/01:00am 6.4 3.7 5.5 94 0.4 WNW 9 15 5 8 1014.9 1014.6 0.2
29/12:30am 6.7 3.7 5.8 94 0.4 WNW 11 15 6 8 1014.9 1014.6 0.2
29/12:00am 6.4 3.3 5.5 94 0.4 WNW 11 13 6 7 1015.0 1014.7 0.2
 
Date/Time
WST
Temp
°C
App
Temp
°C
Dew
Point
Rel
Hum
%
Delta-T
°C
Wind Press
QNH
hPa
Press
MSL
hPa
Rain
since 9 am
mm
Dir
 
Spd
km/h
Gust
km/h
Spd
kts
Gust
kts
28/11:30pm 6.4 3.7 5.5 94 0.4 WNW 9 11 5 6 1015.2 1014.9 0.2
28/11:00pm 6.6 3.9 5.6 93 0.5 NW 9 11 5 6 1015.1 1014.8 0.2
28/10:30pm 6.3 3.9 5.3 93 0.4 NW 7 9 4 5 1015.0 1014.7 0.2
28/10:00pm 6.9 4.2 5.8 93 0.5 WNW 9 9 5 5 1015.0 1014.7 0.2
28/09:30pm 7.8 5.3 6.7 93 0.5 W 9 13 5 7 1014.9 1014.6 0.2
28/09:00pm 7.8 5.3 6.6 92 0.6 NW 9 11 5 6 1014.6 1014.2 0.2
28/08:30pm 8.5 5.8 7.3 92 0.6 W 11 15 6 8 1014.5 1014.1 0.2
28/08:00pm 8.5 6.1 7.1 91 0.7 WNW 9 17 5 9 1014.5 1014.1 0.2
28/07:30pm 8.7 6.3 7.2 90 0.7 WNW 9 11 5 6 1014.3 1013.9 0.2
28/07:00pm 9.9 8.1 8.0 88 0.9 WSW 7 9 4 5 1014.1 1013.7 0.2
28/06:30pm 10.8 8.1 8.9 88 1.0 WSW 13 20 7 11 1013.7 1013.4 0.2
28/06:00pm 10.0 7.8 7.8 86 1.1 WNW 9 11 5 6 1013.3 1013.0 0.0
28/05:30pm 11.4 9.4 8.6 83 1.4 W 9 13 5 7 1013.0 1012.7 0.0
28/05:00pm 12.2 9.6 9.2 82 1.5 W 13 19 7 10 1012.8 1012.5 0.0
28/04:30pm 13.7 10.3 7.7 67 3.0 W 15 22 8 12 1012.4 1012.1 0.0
28/04:00pm 15.2 10.9 8.0 62 3.7 W 20 32 11 17 1011.9 1011.5 0.0
28/03:30pm 15.5 10.5 8.0 61 3.8 W 24 37 13 20 1011.6 1011.2 0.0
28/03:00pm 15.7 10.6 7.7 59 4.1 WSW 24 39 13 21 1011.4 1011.0 0.0
28/02:30pm 16.0 10.5 7.7 58 4.2 W 26 37 14 20 1011.3 1010.9 0.0
28/02:00pm 16.4 11.9 8.6 60 4.1 W 22 32 12 17 1011.1 1010.7 0.0
28/01:30pm 16.4 10.6 8.1 58 4.3 W 28 43 15 23 1010.9 1010.5 0.0
28/01:00pm 16.6 10.8 8.1 57 4.4 W 28 41 15 22 1010.8 1010.4 0.0
28/12:30pm 15.1 9.3 7.9 62 3.7 W 28 41 15 22 1011.0 1010.6 0.0
28/12:00pm 15.3 9.9 7.8 61 3.8 W 26 41 14 22 1011.3 1010.9 0.0
28/11:32am 15.9 10.2 8.2 60 4.0 W 28 46 15 25 1011.5 1011.1 0.0
28/11:30am 16.2 11.1 9.2 63 3.7 W 26 46 14 25 1011.6 1011.2 0.0
28/11:24am 15.8 10.1 8.5 62 3.8 W 28 46 15 25 1011.6 1011.2 0.0
28/11:00am 15.1 10.1 9.5 69 2.9 W 26 44 14 24 1011.8 1011.4 0.0
28/10:30am 15.0 10.2 10.2 73 2.5 W 26 43 14 23 1012.2 1011.9 0.0
28/10:00am 14.7 10.8 10.9 78 2.0 WNW 22 35 12 19 1012.3 1012.0 0.0
28/09:30am 13.5 9.8 10.1 80 1.8 WNW 20 39 11 21 1012.4 1012.1 0.0
28/09:00am 12.2 8.0 9.6 84 1.3 WNW 22 35 12 19 1012.3 1012.0 3.4
28/08:30am 11.3 7.6 9.4 88 1.0 NW 19 28 10 15 1012.2 1011.9 3.4
28/08:00am 10.0 6.5 8.6 91 0.7 NW 17 26 9 14 1012.4 1012.1 3.4
28/07:30am 9.6 6.0 8.4 92 0.6 NW 17 28 9 15 1012.4 1012.1 3.4
28/07:00am 9.5 5.9 8.3 92 0.6 NW 17 28 9 15 1012.5 1012.2 3.4
28/06:30am 9.5 4.9 8.3 92 0.6 NNW 22 32 12 17 1011.9 1011.5 3.2
28/06:00am 8.8 4.6 7.6 92 0.6 NNW 19 26 10 14 1012.1 1011.8 3.0
28/05:30am 8.5 5.7 7.1 91 0.7 WNW 11 15 6 8 1013.0 1012.7 1.8
28/05:00am 8.4 4.3 6.4 87 0.9 NW 17 26 9 14 1013.0 1012.7 0.2
28/04:30am 8.5 4.3 5.8 83 1.2 N 17 22 9 12 1012.3 1012.0 0.0
28/04:00am 8.0 3.8 5.5 84 1.1 N 17 22 9 12 1012.2 1011.9 0.0
28/03:30am 7.9 3.3 5.4 84 1.1 N 19 24 10 13 1012.3 1012.0 0.0
28/03:00am 8.0 3.4 5.5 84 1.1 N 19 26 10 14 1012.7 1012.4 0.0
28/02:30am 8.1 3.9 5.7 85 1.1 N 17 24 9 13 1012.9 1012.6 0.0
28/02:00am 7.9 3.3 5.4 84 1.1 N 19 24 10 13 1013.0 1012.7 0.0
28/01:30am 7.5 3.2 5.3 86 1.0 N 17 22 9 12 1013.4 1013.1 0.0
28/01:00am 7.7 3.8 5.3 85 1.1 N 15 20 8 11 1014.2 1013.8 0.0
28/12:30am 8.5 4.3 5.6 82 1.3 N 17 20 9 11 1014.9 1014.6 0.0
28/12:00am 9.8 5.7 6.2 78 1.7 N 17 20 9 11 1015.6 1015.3 0.0
 
Date/Time
WST
Temp
°C
App
Temp
°C
Dew
Point
Rel
Hum
%
Delta-T
°C
Wind Press
QNH
hPa
Press
MSL
hPa
Rain
since 9 am
mm
Dir
 
Spd
km/h
Gust
km/h
Spd
kts
Gust
kts
27/11:30pm 9.9 6.6 6.3 78 1.7 N 13 15 7 8 1015.7 1015.4 0.0
27/11:00pm 11.6 7.9 6.5 71 2.4 N 15 20 8 11 1016.0 1015.7 0.0
27/10:30pm 11.3 8.1 7.0 75 2.1 N 13 15 7 8 1016.8 1016.5 0.0
27/10:00pm 11.7 8.9 7.0 73 2.3 N 11 15 6 8 1017.5 1017.1 0.0
27/09:30pm 10.9 8.5 6.8 76 2.0 N 9 11 5 6 1018.1 1017.8 0.0
27/09:00pm 11.1 8.6 6.6 74 2.2 N 9 15 5 8 1018.6 1018.3 0.0
27/08:30pm 11.9 8.6 6.4 69 2.6 NNW 13 17 7 9 1018.8 1018.5 0.0
27/08:00pm 11.8 8.4 6.1 68 2.7 NNW 13 19 7 10 1018.6 1018.3 0.0
27/07:30pm 10.4 7.8 6.2 75 2.0 N 9 11 5 6 1018.7 1018.4 0.0
27/07:00pm 10.6 8.5 6.6 76 1.9 N 7 11 4 6 1018.9 1018.6 0.0
27/06:30pm 10.7 8.1 6.1 73 2.2 N 9 13 5 7 1018.8 1018.5 0.0
27/06:00pm 10.3 7.2 5.5 72 2.2 NNW 11 13 6 7 1018.9 1018.6 0.0
27/05:30pm 11.0 7.9 5.5 69 2.6 NNW 11 15 6 8 1018.8 1018.5 0.0
27/05:00pm 12.5 9.8 5.7 63 3.2 NNW 9 11 5 6 1018.6 1018.3 0.0

Other Formats:

Comma delimited format used in spreadsheet applications
http://www.bom.gov.au/fwo/IDW60801/IDW60801.95636.axf

JavaScript Object Notation format (JSON) in row-major order
http://www.bom.gov.au/fwo/IDW60801/IDW60801.95636.json